Terminal Aerodrome Forecast
Issued by NWS

Home | Current Version | Previous Version | Text Only | Print | Product List | Glossary On
Versions: 1 2 3 4 5 6 7 8 9 10 11 12 13 14
000
FTUS43 KABR 020100 AAA
TAFPIR
TAF AMD
KPIR 020102Z 0201/0224 11015KT P6SM VCTS SCT060CB SCT250
      TEMPO 0201/0203 -TSRA
     FM020600 12008KT P6SM BKN250=

USA.gov is the U.S. government's official web portal to all federal, state and local government web resources and services.